Time;durP1;ratioP1;P1;durP2;ratioP2;P2;SDS_P1;SDS_P2;PMS_P1;PMS_P2;Temp;Humidity;BMP_temperature;BMP_pressure;BME280_temperature;BME280_humidity;BME280_pressure;Samples;Min_cycle;Max_cycle;Signal;HPM_P1;HPM_P2
2022/03/13 00:00:49;;;;;;;23.58;13.68;;;7.60;99.90;;;;;;5038980;28;20026;-86
2022/03/13 00:03:17;;;;;;;23.77;13.63;;;7.50;99.90;;;;;;5034631;28;20029;-88
2022/03/13 00:05:49;;;;;;;24.23;14.13;;;7.50;99.90;;;;;;5027901;28;20125;-86
2022/03/13 00:08:35;;;;;;;24.83;14.10;;;7.50;99.90;;;;;;5009274;28;20031;-87
2022/03/13 00:11:15;;;;;;;33.70;18.60;;;10.40;99.90;;;;;;5013092;28;20038;-88
2022/03/13 00:13:51;;;;;;;27.08;15.23;;;7.40;99.90;;;;;;5013783;28;20030;-90
2022/03/13 00:16:18;;;;;;;25.48;15.13;;;;;;;;;;5015103;28;20117;-85
2022/03/13 00:18:48;;;;;;;26.65;15.65;;;7.40;99.90;;;;;;5011188;28;20542;-87
2022/03/13 00:21:15;;;;;;;24.17;15.77;;;;;;;;;;5011830;28;20053;-87
2022/03/13 00:23:42;;;;;;;25.52;14.88;;;7.30;99.90;;;;;;4997108;28;20077;-84
2022/03/13 00:26:12;;;;;;;23.58;14.25;;;;;;;;;;5027385;28;20120;-88
2022/03/13 00:28:39;;;;;;;25.00;14.30;;;;;;;;;;5021508;28;20049;-88
2022/03/13 00:31:05;;;;;;;24.10;14.50;;;7.20;99.90;;;;;;5018462;28;20029;-86
2022/03/13 00:33:31;;;;;;;23.00;14.40;;;8.40;99.90;;;;;;5021113;28;20045;-87
2022/03/13 00:35:57;;;;;;;27.17;15.15;;;9.60;99.90;;;;;;5018006;28;20033;-90
2022/03/13 00:38:25;;;;;;;28.55;15.43;;;;;;;;;;5021687;28;20491;-85
2022/03/13 00:40:56;;;;;;;24.17;15.15;;;7.20;99.90;;;;;;5017666;28;20022;-87
2022/03/13 00:43:23;;;;;;;31.95;17.05;;;7.20;99.90;;;;;;5019329;28;20080;-86
2022/03/13 00:45:49;;;;;;;30.40;16.20;;;;;;;;;;5006450;28;20034;-87
2022/03/13 00:48:20;;;;;;;28.20;16.63;;;7.20;99.90;;;;;;5001028;28;20037;-88
2022/03/13 00:50:46;;;;;;;28.05;15.70;;;;;;;;;;5022836;28;20185;-89
2022/03/13 00:53:13;;;;;;;22.88;14.23;;;;;;;;;;5031588;28;20033;-89
2022/03/13 00:55:39;;;;;;;24.05;14.48;;;;;;;;;;5035711;28;20052;-88
2022/03/13 00:58:06;;;;;;;23.77;14.27;;;;;;;;;;5036377;28;20021;-88
2022/03/13 01:00:32;;;;;;;27.45;14.65;;;;;;;;;;5029326;28;20014;-88
2022/03/13 01:02:58;;;;;;;27.70;16.80;;;;;;;;;;5033784;28;20035;-88
2022/03/13 01:05:25;;;;;;;28.05;16.92;;;7.00;99.90;;;;;;5020440;28;20086;-90
2022/03/13 01:07:55;;;;;;;24.23;14.82;;;6.90;99.90;;;;;;5031110;28;20149;-87
2022/03/13 01:10:21;;;;;;;24.65;14.68;;;;;;;;;;5034385;28;20034;-86
2022/03/13 01:12:49;;;;;;;23.00;13.65;;;6.90;99.90;;;;;;5028208;28;20042;-88
2022/03/13 01:15:15;;;;;;;23.60;14.27;;;6.90;99.90;;;;;;5036184;28;20026;-89
2022/03/13 01:17:44;;;;;;;25.10;15.10;;;;;;;;;;5016240;28;20043;-85
2022/03/13 01:20:16;;;;;;;32.50;16.33;;;6.80;99.90;;;;;;5013446;28;20064;-83
2022/03/13 01:22:42;;;;;;;28.33;16.17;;;;;;;;;;5011013;28;20049;-87
2022/03/13 01:25:08;;;;;;;26.02;16.42;;;;;;;;;;5015894;28;20224;-87
2022/03/13 01:27:35;;;;;;;29.23;16.80;;;;;;;;;;5014222;28;20041;-86
2022/03/13 01:30:03;;;;;;;26.38;14.85;;;;;;;;;;5013213;28;20100;-84
2022/03/13 01:32:32;;;;;;;23.13;13.23;;;;;;;;;;5014787;28;20030;-88
2022/03/13 01:34:58;;;;;;;24.45;14.63;;;7.10;99.90;;;;;;5018167;28;20031;-85
2022/03/13 01:37:34;;;;;;;22.27;11.60;;;7.10;99.90;;;;;;5019687;28;20111;-86
2022/03/13 01:40:04;;;;;;;18.45;11.98;;;7.20;99.90;;;;;;5011514;28;20033;-89
2022/03/13 01:42:31;;;;;;;21.77;11.45;;;;;;;;;;5014835;28;20460;-88
2022/03/13 01:44:57;;;;;;;16.80;10.77;;;;;;;;;;5013718;28;20041;-85
2022/03/13 01:47:23;;;;;;;17.08;10.55;;;;;;;;;;5012956;28;20030;-88
2022/03/13 01:49:50;;;;;;;18.85;11.50;;;;;;;;;;5013509;28;20236;-89
2022/03/13 01:52:16;;;;;;;18.38;10.70;;;7.40;99.90;;;;;;5012290;28;20045;-84
2022/03/13 01:54:45;;;;;;;18.90;11.63;;;7.40;99.90;;;;;;5016924;28;20054;-90
2022/03/13 01:57:16;;;;;;;19.00;11.35;;;7.40;99.90;;;;;;5017323;28;20029;-88
2022/03/13 01:59:42;;;;;;;20.55;12.35;;;8.10;99.90;;;;;;5010410;28;20034;-88
2022/03/13 02:02:08;;;;;;;22.50;13.07;;;7.50;99.90;;;;;;5013651;28;20034;-88
2022/03/13 02:04:34;;;;;;;22.23;13.80;;;8.20;99.90;;;;;;5021392;28;20045;-90
2022/03/13 02:07:03;;;;;;;21.58;13.50;;;7.50;99.90;;;;;;5026532;28;20029;-88
2022/03/13 02:09:29;;;;;;;24.95;14.13;;;;;;;;;;5024639;28;20038;-89
2022/03/13 02:11:55;;;;;;;24.02;13.77;;;7.50;99.90;;;;;;5016514;28;20165;-88
2022/03/13 02:14:30;;;;;;;25.00;13.70;;;7.50;99.90;;;;;;5021877;28;20041;-84
2022/03/13 05:56:15;;;;;;;20.58;11.40;;;;;;;;;;5061820;22;20063;-79
2022/03/13 05:58:41;;;;;;;20.08;11.25;;;;;;;;;;5038303;28;20029;-79
2022/03/13 06:01:09;;;;;;;20.50;10.50;;;;;;;;;;5013991;28;20038;-78
2022/03/13 06:03:35;;;;;;;18.50;10.45;;;;;;;;;;5012679;28;20117;-79
2022/03/13 06:06:03;;;;;;;17.63;10.85;;;6.60;99.90;;;;;;5018484;28;20056;-80
2022/03/13 06:08:30;;;;;;;20.33;11.25;;;7.80;99.90;;;;;;5020806;28;20036;-80
2022/03/13 06:10:57;;;;;;;20.85;11.48;;;6.60;99.90;;;;;;5030899;28;20029;-79
2022/03/13 06:13:24;;;;;;;20.50;12.10;;;8.50;99.90;;;;;;5032587;28;20461;-78
2022/03/13 06:15:50;;;;;;;20.40;12.13;;;6.60;99.90;;;;;;5017372;28;20029;-78
2022/03/13 06:18:16;;;;;;;21.88;11.82;;;7.00;99.90;;;;;;5017442;28;20022;-79
2022/03/13 06:20:42;;;;;;;23.77;12.82;;;6.60;99.90;;;;;;5038052;28;20094;-79
2022/03/13 06:23:09;;;;;;;25.27;13.00;;;7.70;99.90;;;;;;5020654;28;20055;-78
2022/03/13 06:25:35;;;;;;;20.98;12.05;;;6.50;99.90;;;;;;5018254;28;20034;-80
2022/03/13 06:28:01;;;;;;;22.17;12.60;;;6.50;99.90;;;;;;5046270;28;20025;-79
2022/03/13 06:30:28;;;;;;;20.75;12.70;;;7.60;99.90;;;;;;5044393;28;20056;-78
2022/03/13 06:32:54;;;;;;;22.60;13.05;;;6.60;99.90;;;;;;5046852;28;20029;-79
2022/03/13 06:35:22;;;;;;;22.98;12.80;;;6.70;99.90;;;;;;5029939;28;20032;-80
2022/03/13 06:37:52;;;;;;;20.33;12.68;;;6.60;99.90;;;;;;5038553;28;20029;-78
2022/03/13 06:40:19;;;;;;;25.40;12.57;;;6.70;99.90;;;;;;5030994;28;20041;-80
2022/03/13 06:42:46;;;;;;;22.15;12.40;;;7.30;99.90;;;;;;5045856;28;20025;-78
2022/03/13 06:45:13;;;;;;;21.55;12.73;;;7.70;99.90;;;;;;5031211;28;20033;-78
2022/03/13 06:47:39;;;;;;;19.35;12.15;;;6.90;99.90;;;;;;5029326;28;20049;-79
2022/03/13 06:50:06;;;;;;;20.67;12.00;;;6.80;99.90;;;;;;5047955;28;20049;-79
2022/03/13 06:52:32;;;;;;;21.33;12.73;;;6.70;99.90;;;;;;5026878;28;20033;-78
2022/03/13 06:54:57;;;;;;;24.63;13.25;;;6.70;99.90;;;;;;5034489;28;20525;-78
2022/03/13 06:57:23;;;;;;;21.27;12.77;;;6.70;99.90;;;;;;5031247;28;20595;-79
2022/03/13 06:59:49;;;;;;;23.60;12.98;;;6.70;99.90;;;;;;5030266;28;20064;-80
2022/03/13 07:02:14;;;;;;;19.60;11.98;;;7.10;99.90;;;;;;5017057;28;20037;-79
2022/03/13 07:04:40;;;;;;;19.80;12.70;;;6.80;99.90;;;;;;5014348;28;20375;-78
2022/03/13 07:07:06;;;;;;;16.20;10.60;;;6.90;99.90;;;;;;5016290;28;20034;-79
2022/03/13 07:09:32;;;;;;;18.90;11.45;;;7.00;99.90;;;;;;5015710;28;20033;-79
2022/03/13 07:11:58;;;;;;;22.60;12.40;;;7.10;99.90;;;;;;5018644;28;20116;-78
2022/03/13 07:14:24;;;;;;;19.50;10.95;;;7.40;99.90;;;;;;5033467;28;20056;-79
2022/03/13 07:16:51;;;;;;;19.83;11.20;;;7.30;99.90;;;;;;5035431;28;20026;-79
2022/03/13 07:19:17;;;;;;;21.00;11.57;;;7.40;99.90;;;;;;5031828;28;20029;-79
2022/03/13 07:21:43;;;;;;;20.33;11.82;;;7.30;99.90;;;;;;5017682;28;20034;-78
2022/03/13 07:24:10;;;;;;;18.00;11.82;;;7.20;99.90;;;;;;5029995;28;20089;-80
2022/03/13 07:26:36;;;;;;;19.20;11.73;;;7.20;99.90;;;;;;5004772;28;20059;-80
2022/03/13 07:29:02;;;;;;;20.55;12.18;;;7.20;99.90;;;;;;5001102;28;20025;-79
2022/03/13 07:31:31;;;;;;;20.25;12.35;;;7.80;99.90;;;;;;5026502;28;20498;-78
2022/03/13 07:33:57;;;;;;;19.95;11.95;;;7.40;99.90;;;;;;5010055;28;20030;-80
2022/03/13 07:36:23;;;;;;;18.13;10.63;;;7.50;99.90;;;;;;5032988;28;20036;-80
2022/03/13 07:38:49;;;;;;;19.60;11.50;;;7.60;99.90;;;;;;5034221;28;20080;-80
2022/03/13 07:41:15;;;;;;;20.75;11.65;;;7.70;99.90;;;;;;5016865;28;20032;-80
2022/03/13 07:43:41;;;;;;;20.10;11.68;;;7.80;99.90;;;;;;5016818;28;20045;-80
2022/03/13 07:46:07;;;;;;;18.50;10.88;;;7.90;99.60;;;;;;5009719;28;20029;-79
2022/03/13 07:48:35;;;;;;;17.35;11.00;;;8.10;99.00;;;;;;5008422;28;20037;-78
2022/03/13 07:51:03;;;;;;;18.90;11.30;;;8.10;98.90;;;;;;5009889;28;20025;-80
2022/03/13 07:53:28;;;;;;;18.35;11.88;;;8.20;98.00;;;;;;5030659;28;20018;-79
2022/03/13 07:55:55;;;;;;;19.73;11.50;;;8.40;97.40;;;;;;5035494;28;20026;-79
2022/03/13 07:58:21;;;;;;;19.85;11.77;;;9.20;96.80;;;;;;5021002;28;20028;-81
2022/03/13 08:00:47;;;;;;;23.05;12.02;;;8.60;96.50;;;;;;5020820;28;20026;-80
2022/03/13 08:03:14;;;;;;;19.08;12.13;;;8.70;95.80;;;;;;5049490;28;20036;-79
2022/03/13 08:05:40;;;;;;;21.27;11.93;;;8.80;94.90;;;;;;5028631;28;20022;-79
2022/03/13 08:08:05;;;;;;;17.80;11.35;;;9.00;94.40;;;;;;5037973;28;20036;-79
2022/03/13 08:10:31;;;;;;;20.75;11.75;;;9.50;94.50;;;;;;5013100;28;20030;-79
2022/03/13 08:12:57;;;;;;;20.42;11.73;;;;;;;;;;5025754;28;20041;-79
2022/03/13 08:15:23;;;;;;;20.02;12.02;;;9.10;93.70;;;;;;5041265;28;20021;-79
2022/03/13 08:17:51;;;;;;;19.10;11.75;;;9.80;93.80;;;;;;5046140;28;20087;-79
2022/03/13 08:20:16;;;;;;;18.38;11.80;;;9.50;94.00;;;;;;5029459;28;20017;-79
2022/03/13 08:22:42;;;;;;;20.23;11.95;;;10.30;93.80;;;;;;5045142;28;20097;-80
2022/03/13 08:25:08;;;;;;;18.65;11.32;;;9.50;93.00;;;;;;5045908;28;20075;-80
2022/03/13 08:27:34;;;;;;;19.85;11.60;;;9.70;92.20;;;;;;5038944;28;20037;-80
2022/03/13 08:30:01;;;;;;;18.40;11.55;;;10.90;92.50;;;;;;5022342;28;20095;-80
2022/03/13 08:32:27;;;;;;;20.40;12.13;;;9.80;92.00;;;;;;5030008;28;20087;-80
2022/03/13 08:34:53;;;;;;;20.52;12.25;;;10.00;91.20;;;;;;5016659;28;20021;-80
2022/03/13 08:37:19;;;;;;;24.10;13.25;;;10.00;91.10;;;;;;5031782;28;20014;-80
2022/03/13 08:39:50;;;;;;;21.13;12.35;;;10.00;91.30;;;;;;5038275;28;20027;-79
2022/03/13 08:42:15;;;;;;;20.95;12.32;;;10.20;90.90;;;;;;5018777;28;20029;-80
2022/03/13 08:44:41;;;;;;;23.08;12.27;;;10.30;90.30;;;;;;5028087;28;20124;-80
2022/03/13 08:47:07;;;;;;;19.45;11.88;;;10.40;90.30;;;;;;5022776;28;20026;-80
2022/03/13 08:49:33;;;;;;;21.88;12.18;;;10.50;89.60;;;;;;5022115;28;20041;-82
2022/03/13 08:51:58;;;;;;;22.15;12.80;;;10.50;89.30;;;;;;5019086;28;20029;-79
2022/03/13 08:54:24;;;;;;;19.15;11.75;;;10.70;88.70;;;;;;5036923;28;20022;-79
2022/03/13 08:56:49;;;;;;;20.98;12.63;;;10.90;88.50;;;;;;5013013;28;20030;-79
2022/03/13 08:59:18;;;;;;;21.00;12.32;;;11.00;89.20;;;;;;5031413;28;20021;-80
2022/03/13 09:01:43;;;;;;;20.23;11.48;;;11.00;88.30;;;;;;5030126;28;20022;-79
2022/03/13 09:04:09;;;;;;;19.60;11.90;;;;;;;;;;5032534;28;20087;-81
2022/03/13 09:06:36;;;;;;;18.38;12.05;;;11.30;85.80;;;;;;5011910;28;20025;-79
2022/03/13 09:09:02;;;;;;;22.15;11.75;;;11.30;85.60;;;;;;5000719;28;20049;-80
2022/03/13 09:11:28;;;;;;;19.13;12.05;;;;;;;;;;5027460;28;20029;-81
2022/03/13 09:13:53;;;;;;;18.45;11.38;;;11.50;84.30;;;;;;5030126;28;20032;-79
2022/03/13 09:16:19;;;;;;;19.70;11.68;;;11.50;88.10;;;;;;5035501;28;20017;-78
2022/03/13 09:18:45;;;;;;;18.77;12.07;;;11.00;84.70;;;;;;5001992;28;20033;-78
2022/03/13 09:21:11;;;;;;;18.95;11.73;;;14.40;86.30;;;;;;5033218;28;20028;-79
2022/03/13 09:23:37;;;;;;;19.83;12.32;;;13.50;86.90;;;;;;5033596;28;20017;-79
2022/03/13 09:26:02;;;;;;;21.88;12.23;;;14.80;85.60;;;;;;5020140;28;20061;-80
2022/03/13 09:28:29;;;;;;;25.40;12.48;;;12.30;84.30;;;;;;5034841;28;20030;-79
2022/03/13 09:31:00;;;;;;;22.00;12.50;;;12.40;83.20;;;;;;5036152;28;20067;-80
2022/03/13 09:33:27;;;;;;;18.77;11.30;;;12.30;83.40;;;;;;5016914;28;20029;-79
2022/03/13 09:35:54;;;;;;;18.33;11.98;;;12.40;83.30;;;;;;5031008;28;20109;-79
2022/03/13 09:38:20;;;;;;;18.63;11.98;;;12.20;84.10;;;;;;5010203;28;20021;-79
2022/03/13 09:40:46;;;;;;;19.50;12.23;;;;;;;;;;5035756;28;20034;-79
2022/03/13 09:43:11;;;;;;;22.48;12.68;;;12.60;82.40;;;;;;5015898;28;20103;-78
2022/03/13 09:45:37;;;;;;;19.73;12.00;;;;;;;;;;5035656;28;20426;-78
2022/03/13 09:48:06;;;;;;;19.02;12.07;;;12.90;81.80;;;;;;5036659;28;20242;-80
2022/03/13 09:50:32;;;;;;;19.60;12.27;;;13.00;81.50;;;;;;5038834;28;20117;-79
2022/03/13 09:52:58;;;;;;;19.17;11.93;;;13.70;81.60;;;;;;5041242;28;20109;-80
2022/03/13 09:55:24;;;;;;;20.13;11.75;;;13.00;81.50;;;;;;5034755;28;20081;-78
2022/03/13 09:57:52;;;;;;;19.25;12.18;;;;;;;;;;5036289;28;20041;-79
2022/03/13 10:00:21;;;;;;;20.30;12.68;;;13.20;80.20;;;;;;5024371;28;20064;-78
2022/03/13 10:02:47;;;;;;;20.48;12.70;;;13.20;79.70;;;;;;5015784;28;20029;-79
2022/03/13 10:05:15;;;;;;;20.38;11.95;;;13.10;80.50;;;;;;5037071;28;20025;-79
2022/03/13 10:08:01;;;;;;;21.92;12.18;;;13.10;80.30;;;;;;5040282;28;20053;-79
2022/03/13 10:10:40;;;;;;;19.40;12.57;;;13.30;80.60;;;;;;5037032;28;20084;-79
2022/03/13 10:13:06;;;;;;;21.73;12.05;;;13.00;80.10;;;;;;5037749;28;20029;-80
2022/03/13 10:15:46;;;;;;;19.88;12.48;;;13.10;80.70;;;;;;5036582;28;20036;-80
2022/03/13 10:18:25;;;;;;;23.98;13.57;;;13.10;80.20;;;;;;5034055;28;20035;-79
2022/03/13 10:20:52;;;;;;;19.63;12.30;;;13.00;80.10;;;;;;5021973;28;20028;-80
2022/03/13 10:23:22;;;;;;;18.33;11.75;;;12.90;80.70;;;;;;5019089;28;20032;-79
2022/03/13 10:25:53;;;;;;;23.13;13.32;;;12.80;80.60;;;;;;5023434;28;20082;-79
2022/03/13 10:28:28;;;;;;;23.50;12.45;;;12.80;81.10;;;;;;5039688;28;20029;-78
2022/03/13 10:31:00;;;;;;;21.25;12.68;;;13.00;80.70;;;;;;5024819;28;20032;-80
2022/03/13 10:33:42;;;;;;;21.50;12.68;;;13.20;80.30;;;;;;5024503;28;20403;-79
2022/03/13 10:36:09;;;;;;;21.98;13.88;;;13.40;79.70;;;;;;5036048;28;20025;-80
2022/03/13 10:38:35;;;;;;;21.50;13.02;;;13.40;79.30;;;;;;5036245;28;20017;-79
2022/03/13 10:41:05;;;;;;;22.77;13.10;;;13.40;79.60;;;;;;5019906;28;20034;-80
2022/03/13 10:43:32;;;;;;;22.65;13.20;;;13.30;79.90;;;;;;5042906;28;20170;-79
2022/03/13 10:45:58;;;;;;;19.13;11.88;;;13.40;80.20;;;;;;5051855;28;20029;-79
2022/03/13 10:48:33;;;;;;;18.33;12.55;;;13.60;80.40;;;;;;5033824;28;20021;-80
2022/03/13 10:51:01;;;;;;;22.15;13.40;;;13.70;80.00;;;;;;5043574;28;20112;-80
2022/03/13 10:53:27;;;;;;;19.88;12.45;;;13.80;78.80;;;;;;5026739;28;20057;-79
2022/03/13 10:56:12;;;;;;;21.55;13.23;;;14.00;78.50;;;;;;5029851;28;20056;-79
2022/03/13 10:58:44;;;;;;;18.90;11.80;;;14.10;78.60;;;;;;5048045;28;20021;-79
2022/03/13 11:01:12;;;;;;;20.23;12.88;;;14.10;78.90;;;;;;5040220;28;20075;-81
2022/03/13 11:04:06;;;;;;;22.38;12.95;;;14.30;79.30;;;;;;5043825;28;20053;-82
2022/03/13 11:06:35;;;;;;;23.48;12.95;;;14.40;78.00;;;;;;5025227;28;20399;-79
2022/03/13 11:09:01;;;;;;;21.05;12.52;;;14.30;78.20;;;;;;5027122;28;20025;-81
2022/03/13 11:11:28;;;;;;;20.92;13.18;;;14.20;78.30;;;;;;5050850;28;20037;-81
2022/03/13 11:13:57;;;;;;;21.90;13.63;;;14.20;78.70;;;;;;5025210;28;20128;-80
2022/03/13 11:16:30;;;;;;;19.27;12.70;;;14.30;78.50;;;;;;5027007;28;20477;-80
2022/03/13 11:18:59;;;;;;;19.52;12.40;;;14.30;78.90;;;;;;5038465;28;20033;-81
2022/03/13 11:21:27;;;;;;;19.73;11.98;;;14.20;78.50;;;;;;5038063;28;20032;-78
2022/03/13 11:23:53;;;;;;;20.23;13.32;;;14.20;78.50;;;;;;5021235;28;20026;-78
2022/03/13 11:26:23;;;;;;;22.55;13.05;;;14.10;79.20;;;;;;5040848;28;20036;-78
2022/03/13 11:28:49;;;;;;;19.70;11.23;;;14.20;78.70;;;;;;5033103;28;20506;-78
2022/03/13 11:31:30;;;;;;;20.48;11.85;;;14.20;78.80;;;;;;5023026;28;20037;-79
2022/03/13 11:34:16;;;;;;;19.80;12.32;;;14.40;78.40;;;;;;5029369;28;20088;-79
2022/03/13 11:36:47;;;;;;;20.05;11.82;;;14.40;77.60;;;;;;5033421;28;20040;-80
2022/03/13 11:39:27;;;;;;;20.67;13.15;;;14.50;77.80;;;;;;5014277;28;20052;-79
2022/03/13 11:41:53;;;;;;;20.45;12.43;;;14.60;77.50;;;;;;5033692;28;20029;-78
2022/03/13 11:44:21;;;;;;;23.17;11.82;;;14.70;77.10;;;;;;5033485;28;20033;-80
2022/03/13 11:46:48;;;;;;;16.05;10.85;;;14.80;76.30;;;;;;5034258;28;20025;-77
2022/03/13 11:49:33;;;;;;;21.70;12.32;;;14.80;75.70;;;;;;5033639;28;20548;-80
2022/03/13 11:52:17;;;;;;;20.63;12.05;;;14.80;75.40;;;;;;5018556;28;20051;-80
2022/03/13 11:54:55;;;;;;;21.90;13.13;;;14.80;75.80;;;;;;5036589;28;20064;-82
2022/03/13 11:57:26;;;;;;;21.08;12.30;;;14.80;75.50;;;;;;5046050;28;20028;-85
2022/03/13 12:00:10;;;;;;;19.10;11.75;;;14.80;75.00;;;;;;5043842;28;20040;-80
2022/03/13 12:02:45;;;;;;;20.23;12.18;;;14.80;74.80;;;;;;5032393;28;20029;-79
2022/03/13 12:05:30;;;;;;;21.60;11.98;;;14.80;74.50;;;;;;5025857;28;20487;-79
2022/03/13 12:08:05;;;;;;;20.70;11.30;;;14.80;74.90;;;;;;5030521;28;20029;-80
2022/03/13 12:10:35;;;;;;;22.02;13.30;;;14.80;74.60;;;;;;5026756;28;20026;-81
2022/03/13 12:13:12;;;;;;;21.70;12.18;;;14.90;73.50;;;;;;5010104;28;20483;-80
2022/03/13 12:15:40;;;;;;;20.42;11.93;;;14.90;73.70;;;;;;5009249;28;20029;-81
2022/03/13 12:18:23;;;;;;;24.88;12.43;;;14.80;74.00;;;;;;4998666;28;20044;-80
2022/03/13 12:20:50;;;;;;;21.35;12.43;;;14.80;74.10;;;;;;5030151;28;20026;-80
2022/03/13 12:23:33;;;;;;;20.75;12.63;;;15.90;75.00;;;;;;5031895;28;20029;-79
2022/03/13 12:26:34;;;;;;;24.23;12.65;;;14.90;74.10;;;;;;5027984;28;20055;-80
2022/03/13 12:29:00;;;;;;;23.45;11.43;;;15.00;75.10;;;;;;5026263;28;20507;-81
2022/03/13 12:31:26;;;;;;;20.77;11.57;;;14.90;74.40;;;;;;5028136;28;20029;-80
2022/03/13 12:33:54;;;;;;;21.38;13.38;;;14.90;74.30;;;;;;5015124;28;20554;-80
2022/03/13 12:36:23;;;;;;;21.88;12.63;;;14.90;73.80;;;;;;5006852;28;20109;-82
2022/03/13 12:38:50;;;;;;;21.45;11.68;;;14.80;74.50;;;;;;5010207;28;20029;-81
2022/03/13 12:41:16;;;;;;;20.38;11.98;;;15.50;75.00;;;;;;5010487;28;20026;-80
2022/03/13 12:43:59;;;;;;;18.15;10.93;;;15.00;75.00;;;;;;5009366;28;21267;-81
2022/03/13 12:46:27;;;;;;;19.33;12.25;;;14.90;75.60;;;;;;5025358;28;20082;-81
2022/03/13 12:48:59;;;;;;;19.50;11.35;;;14.90;76.50;;;;;;5008636;28;20124;-81
2022/03/13 12:51:49;;;;;;;20.50;11.40;;;14.80;75.60;;;;;;5014576;28;20029;-80
2022/03/13 12:54:22;;;;;;;20.67;11.75;;;14.80;75.40;;;;;;5029779;28;20052;-80
2022/03/13 12:56:53;;;;;;;16.73;10.10;;;14.90;76.50;;;;;;5027837;28;20189;-82
2022/03/13 12:59:26;;;;;;;16.98;10.32;;;15.00;75.20;;;;;;5039141;28;20029;-80
2022/03/13 13:02:06;;;;;;;20.35;10.85;;;15.00;75.50;;;;;;5038490;28;20022;-82
2022/03/13 13:04:41;;;;;;;18.30;10.25;;;15.10;75.60;;;;;;5018280;28;20034;-81
2022/03/13 13:07:09;;;;;;;17.52;10.68;;;15.20;75.10;;;;;;5024321;28;20038;-78
2022/03/13 13:09:36;;;;;;;16.88;10.20;;;15.10;74.70;;;;;;5039934;28;20037;-79
2022/03/13 13:12:03;;;;;;;19.15;10.38;;;15.40;75.70;;;;;;5035668;28;20307;-79
2022/03/13 13:14:31;;;;;;;18.15;10.38;;;15.00;76.10;;;;;;5019686;28;20024;-78
2022/03/13 13:16:58;;;;;;;15.75;8.80;;;15.00;77.00;;;;;;5040409;28;20085;-81
2022/03/13 13:19:25;;;;;;;17.10;9.70;;;14.90;78.90;;;;;;5014760;28;20018;-82
2022/03/13 13:21:59;;;;;;;17.70;10.30;;;14.90;79.80;;;;;;5034117;28;20025;-80
2022/03/13 13:24:35;;;;;;;15.85;9.43;;;14.90;80.80;;;;;;5038973;28;20021;-79
2022/03/13 13:27:10;;;;;;;14.23;9.15;;;15.00;80.80;;;;;;5042584;28;20021;-82
2022/03/13 13:29:39;;;;;;;14.02;7.82;;;15.00;81.20;;;;;;5036617;28;20042;-81
2022/03/13 13:32:32;;;;;;;12.73;7.07;;;15.10;81.50;;;;;;5041176;28;20029;-81
2022/03/13 13:35:13;;;;;;;9.63;5.85;;;15.00;79.50;;;;;;5039472;28;20060;-82
2022/03/13 13:38:04;;;;;;;10.88;6.57;;;15.00;79.50;;;;;;5023012;28;20030;-82
2022/03/13 13:40:35;;;;;;;11.27;6.20;;;15.00;79.60;;;;;;5038677;28;20030;-80
2022/03/13 13:43:11;;;;;;;8.32;4.93;;;15.10;78.70;;;;;;5022715;28;20049;-82
2022/03/13 13:45:45;;;;;;;8.02;5.13;;;15.20;77.50;;;;;;5041087;28;20044;-81
2022/03/13 13:48:32;;;;;;;8.65;5.43;;;15.20;77.70;;;;;;5044762;28;20036;-81
2022/03/13 13:51:35;;;;;;;8.15;5.10;;;15.30;76.70;;;;;;5021300;28;20022;-81
2022/03/13 13:54:11;;;;;;;5.85;3.80;;;15.50;77.40;;;;;;4996876;28;20110;-81
2022/03/13 13:56:40;;;;;;;5.70;3.70;;;15.70;77.60;;;;;;5038648;28;20033;-78
2022/03/13 13:59:28;;;;;;;6.05;2.90;;;15.90;76.20;;;;;;5040130;28;20072;-82
2022/03/13 14:02:03;;;;;;;9.80;5.35;;;16.00;75.70;;;;;;5043907;28;20037;-79
2022/03/13 14:04:34;;;;;;;9.40;6.22;;;16.30;74.60;;;;;;5036630;28;20095;-82
2022/03/13 14:07:00;;;;;;;10.02;6.43;;;16.30;72.80;;;;;;5034011;28;20028;-82
2022/03/13 14:09:27;;;;;;;10.30;5.97;;;15.20;71.90;;;;;;5020355;28;20161;-81
2022/03/13 14:11:53;;;;;;;8.82;5.15;;;16.40;72.70;;;;;;5020403;28;20029;-82
2022/03/13 14:14:19;;;;;;;6.88;4.00;;;16.50;73.50;;;;;;5028834;28;20045;-80
2022/03/13 14:16:44;;;;;;;5.10;3.50;;;16.60;71.40;;;;;;5028937;28;20025;-81
2022/03/13 14:19:11;;;;;;;6.95;3.78;;;16.70;70.70;;;;;;5032127;28;20036;-80
2022/03/13 14:21:37;;;;;;;5.78;3.30;;;16.60;70.70;;;;;;5041735;28;20655;-79
2022/03/13 14:24:07;;;;;;;6.85;4.38;;;16.60;71.30;;;;;;5045933;28;20041;-80
2022/03/13 14:26:33;;;;;;;10.15;4.40;;;16.60;71.30;;;;;;5040327;28;20033;-82
2022/03/13 14:29:00;;;;;;;7.75;4.05;;;16.50;71.20;;;;;;5041291;28;20068;-81
2022/03/13 14:31:27;;;;;;;8.63;4.85;;;16.40;71.10;;;;;;5045167;28;20032;-81
2022/03/13 14:33:52;;;;;;;7.90;4.85;;;16.40;71.70;;;;;;5026480;28;20094;-82
2022/03/13 14:36:19;;;;;;;8.25;5.10;;;16.40;71.60;;;;;;5043254;28;20048;-80
2022/03/13 14:38:48;;;;;;;7.28;4.60;;;16.30;71.70;;;;;;5028367;28;20022;-80
2022/03/13 14:41:19;;;;;;;12.38;6.38;;;16.30;71.70;;;;;;5041856;28;20080;-79
2022/03/13 14:43:45;;;;;;;14.95;7.63;;;16.30;71.80;;;;;;5042454;28;20068;-80
2022/03/13 14:46:13;;;;;;;13.82;8.70;;;16.40;71.20;;;;;;5031881;28;20024;-82
2022/03/13 14:48:40;;;;;;;12.50;8.63;;;16.40;70.50;;;;;;5032989;28;20096;-78
2022/03/13 14:51:06;;;;;;;15.98;8.88;;;16.40;70.00;;;;;;5019878;28;20769;-79
2022/03/13 14:53:35;;;;;;;16.50;9.40;;;17.60;70.80;;;;;;5045433;28;20030;-81
2022/03/13 14:56:04;;;;;;;14.48;9.20;;;16.40;69.90;;;;;;5046166;28;20029;-80
2022/03/13 14:58:31;;;;;;;16.45;9.73;;;16.30;70.20;;;;;;5048815;28;20018;-82
2022/03/13 15:00:56;;;;;;;15.43;9.57;;;16.30;70.10;;;;;;5044304;28;20029;-82
2022/03/13 15:03:22;;;;;;;13.65;8.55;;;16.10;70.50;;;;;;5026891;28;20127;-80
2022/03/13 15:05:48;;;;;;;17.48;9.52;;;16.10;70.50;;;;;;5024592;28;20033;-79
2022/03/13 15:08:16;;;;;;;15.57;8.73;;;16.00;70.30;;;;;;5036479;28;20075;-79
2022/03/13 15:10:41;;;;;;;15.63;8.75;;;17.50;71.50;;;;;;5031789;28;20030;-79
2022/03/13 15:13:07;;;;;;;14.15;8.55;;;15.90;70.90;;;;;;5015905;28;20052;-79
2022/03/13 15:15:37;;;;;;;15.30;9.05;;;15.80;71.00;;;;;;5030555;28;20060;-78
2022/03/13 15:18:02;;;;;;;13.48;8.25;;;15.70;71.10;;;;;;5009367;28;20310;-78
2022/03/13 15:20:28;;;;;;;13.80;8.52;;;15.70;71.30;;;;;;5027873;28;20079;-80
2022/03/13 15:22:55;;;;;;;13.80;8.73;;;15.70;71.40;;;;;;5027537;28;20034;-79
2022/03/13 15:25:21;;;;;;;12.63;7.50;;;15.50;71.50;;;;;;5024806;28;20026;-77
2022/03/13 15:27:48;;;;;;;12.45;7.97;;;15.70;71.60;;;;;;5029798;28;20064;-79
2022/03/13 15:30:16;;;;;;;11.35;7.13;;;15.70;71.10;;;;;;5031196;28;20026;-79
2022/03/13 15:32:42;;;;;;;15.93;7.60;;;15.70;71.30;;;;;;5014438;28;21395;-77
2022/03/13 15:35:08;;;;;;;12.15;7.80;;;15.50;70.90;;;;;;5030903;28;20052;-79
2022/03/13 15:37:37;;;;;;;15.70;8.93;;;15.60;71.50;;;;;;5031581;28;20438;-79
2022/03/13 15:40:04;;;;;;;12.93;7.70;;;15.60;71.50;;;;;;5033266;28;20021;-80
2022/03/13 15:45:00;;;;;;;17.20;9.27;;;;;;;;;;5028440;28;20049;-84
2022/03/13 15:47:26;;;;;;;14.65;8.25;;;;;;;;;;5029914;28;20470;-82
2022/03/13 15:49:52;;;;;;;13.65;8.25;;;16.70;73.20;;;;;;4993344;28;20065;-84
2022/03/13 15:52:18;;;;;;;12.85;7.80;;;15.30;71.60;;;;;;5005015;28;20504;-84
2022/03/13 15:54:47;;;;;;;13.77;8.02;;;15.20;71.60;;;;;;5009781;28;20032;-82
2022/03/13 15:57:13;;;;;;;15.77;7.78;;;15.20;72.10;;;;;;5008624;28;20469;-84
2022/03/13 15:59:42;;;;;;;13.48;8.13;;;15.20;72.10;;;;;;5007873;28;20022;-83
2022/03/13 16:02:07;;;;;;;13.48;8.35;;;15.20;72.40;;;;;;5012010;28;20033;-82
2022/03/13 16:04:34;;;;;;;13.98;8.30;;;;;;;;;;5006860;28;20033;-82
2022/03/13 16:06:59;;;;;;;12.90;8.10;;;15.20;72.70;;;;;;5011123;28;20025;-83
2022/03/13 16:09:33;;;;;;;14.88;8.48;;;15.10;72.80;;;;;;5016119;28;20371;-82
2022/03/13 16:12:00;;;;;;;13.80;7.60;;;15.10;72.50;;;;;;5021872;28;20085;-85
2022/03/13 16:14:27;;;;;;;11.35;6.47;;;15.00;73.10;;;;;;5012837;28;20032;-86
2022/03/13 16:16:54;;;;;;;10.35;6.30;;;15.00;72.80;;;;;;4999687;28;20026;-83
2022/03/13 16:19:23;;;;;;;11.48;6.80;;;14.90;72.60;;;;;;5003129;28;20030;-83
2022/03/13 16:21:49;;;;;;;13.50;7.13;;;;;;;;;;5023648;28;20392;-84
2022/03/13 16:24:15;;;;;;;11.63;7.50;;;;;;;;;;5016480;28;20036;-85
2022/03/13 16:26:41;;;;;;;11.20;6.55;;;14.90;73.10;;;;;;5015627;28;20130;-82
2022/03/13 16:29:07;;;;;;;13.02;7.13;;;14.90;73.40;;;;;;5020042;28;20029;-83
2022/03/13 16:31:33;;;;;;;15.07;8.98;;;;;;;;;;5012108;28;20553;-86
2022/03/13 16:33:59;;;;;;;12.88;8.07;;;14.80;74.00;;;;;;5030623;28;20018;-83
2022/03/13 16:36:25;;;;;;;12.35;7.43;;;;;;;;;;5031459;28;20026;-80